sensor_id;sensor_type;location;lat;lon;timestamp;temperature;humidity
18575;DHT22;9417;16.484;102.872;2023-03-20T00:01:40;25.60;78.00
18575;DHT22;9417;16.484;102.872;2023-03-20T00:03:48;25.60;77.90
18575;DHT22;9417;16.484;102.872;2023-03-20T00:05:55;25.70;77.90
18575;DHT22;9417;16.484;102.872;2023-03-20T00:08:02;25.80;77.60
18575;DHT22;9417;16.484;102.872;2023-03-20T00:10:10;25.80;77.30
18575;DHT22;9417;16.484;102.872;2023-03-20T00:12:20;25.90;77.20
18575;DHT22;9417;16.484;102.872;2023-03-20T00:14:30;25.90;77.20
18575;DHT22;9417;16.484;102.872;2023-03-20T00:16:38;26.00;77.30
18575;DHT22;9417;16.484;102.872;2023-03-20T00:18:45;26.10;77.20
18575;DHT22;9417;16.484;102.872;2023-03-20T00:20:52;26.10;76.90
18575;DHT22;9417;16.484;102.872;2023-03-20T00:22:59;26.20;77.00
18575;DHT22;9417;16.484;102.872;2023-03-20T00:25:08;26.20;76.90
18575;DHT22;9417;16.484;102.872;2023-03-20T00:27:18;26.30;76.60
18575;DHT22;9417;16.484;102.872;2023-03-20T00:29:26;26.40;76.20
18575;DHT22;9417;16.484;102.872;2023-03-20T00:31:38;26.50;75.80
18575;DHT22;9417;16.484;102.872;2023-03-20T00:33:45;26.50;75.60
18575;DHT22;9417;16.484;102.872;2023-03-20T00:35:53;26.60;75.50
18575;DHT22;9417;16.484;102.872;2023-03-20T00:38:00;26.60;75.70
18575;DHT22;9417;16.484;102.872;2023-03-20T00:40:10;26.70;75.90
18575;DHT22;9417;16.484;102.872;2023-03-20T00:42:20;26.70;75.60
18575;DHT22;9417;16.484;102.872;2023-03-20T00:44:31;26.70;75.70
18575;DHT22;9417;16.484;102.872;2023-03-20T00:46:40;26.80;75.90
18575;DHT22;9417;16.484;102.872;2023-03-20T00:48:48;26.80;75.90
18575;DHT22;9417;16.484;102.872;2023-03-20T00:50:55;26.90;75.90
18575;DHT22;9417;16.484;102.872;2023-03-20T00:53:03;26.90;75.80
18575;DHT22;9417;16.484;102.872;2023-03-20T00:55:10;27.00;75.40
18575;DHT22;9417;16.484;102.872;2023-03-20T00:57:20;27.10;75.00
18575;DHT22;9417;16.484;102.872;2023-03-20T00:59:31;27.20;74.60
18575;DHT22;9417;16.484;102.872;2023-03-20T01:01:40;27.20;74.30
18575;DHT22;9417;16.484;102.872;2023-03-20T01:03:47;27.30;73.90
18575;DHT22;9417;16.484;102.872;2023-03-20T01:05:54;27.40;73.60
18575;DHT22;9417;16.484;102.872;2023-03-20T01:08:04;27.40;73.40
18575;DHT22;9417;16.484;102.872;2023-03-20T01:10:11;27.50;73.30
18575;DHT22;9417;16.484;102.872;2023-03-20T01:12:19;27.50;73.00
18575;DHT22;9417;16.484;102.872;2023-03-20T01:14:26;27.60;72.90
18575;DHT22;9417;16.484;102.872;2023-03-20T01:16:33;27.70;72.70
18575;DHT22;9417;16.484;102.872;2023-03-20T01:18:42;27.80;72.70
18575;DHT22;9417;16.484;102.872;2023-03-20T01:20:50;27.90;72.60
18575;DHT22;9417;16.484;102.872;2023-03-20T01:22:58;28.00;72.40
18575;DHT22;9417;16.484;102.872;2023-03-20T01:25:05;28.00;72.10
18575;DHT22;9417;16.484;102.872;2023-03-20T01:27:14;28.10;72.00
18575;DHT22;9417;16.484;102.872;2023-03-20T01:29:23;28.10;71.80
18575;DHT22;9417;16.484;102.872;2023-03-20T01:31:30;28.20;71.60
18575;DHT22;9417;16.484;102.872;2023-03-20T01:33:38;28.30;71.40
18575;DHT22;9417;16.484;102.872;2023-03-20T01:35:48;28.40;71.30
18575;DHT22;9417;16.484;102.872;2023-03-20T01:37:56;28.60;71.10
18575;DHT22;9417;16.484;102.872;2023-03-20T01:40:03;28.60;70.60
18575;DHT22;9417;16.484;102.872;2023-03-20T01:42:16;28.60;70.30
18575;DHT22;9417;16.484;102.872;2023-03-20T01:44:25;28.70;70.30
18575;DHT22;9417;16.484;102.872;2023-03-20T01:46:35;28.70;70.40
18575;DHT22;9417;16.484;102.872;2023-03-20T01:49:07;28.70;70.50
18575;DHT22;9417;16.484;102.872;2023-03-20T01:51:16;28.70;70.50
18575;DHT22;9417;16.484;102.872;2023-03-20T01:53:26;28.80;70.40
18575;DHT22;9417;16.484;102.872;2023-03-20T01:55:36;28.90;70.30
18575;DHT22;9417;16.484;102.872;2023-03-20T01:57:45;28.90;70.30
18575;DHT22;9417;16.484;102.872;2023-03-20T01:59:57;28.90;70.10
18575;DHT22;9417;16.484;102.872;2023-03-20T02:02:20;29.00;70.00
18575;DHT22;9417;16.484;102.872;2023-03-20T02:04:31;29.00;69.80
18575;DHT22;9417;16.484;102.872;2023-03-20T02:06:46;29.10;69.70
18575;DHT22;9417;16.484;102.872;2023-03-20T02:09:08;29.20;69.60
18575;DHT22;9417;16.484;102.872;2023-03-20T02:11:19;29.30;69.60
18575;DHT22;9417;16.484;102.872;2023-03-20T02:13:29;29.30;69.30
18575;DHT22;9417;16.484;102.872;2023-03-20T02:15:54;29.40;69.10
18575;DHT22;9417;16.484;102.872;2023-03-20T02:18:27;29.50;68.80
18575;DHT22;9417;16.484;102.872;2023-03-20T02:20:49;29.60;68.70
18575;DHT22;9417;16.484;102.872;2023-03-20T02:23:28;29.60;68.50
18575;DHT22;9417;16.484;102.872;2023-03-20T02:31:49;29.90;69.90
18575;DHT22;9417;16.484;102.872;2023-03-20T02:37:01;29.90;68.20
18575;DHT22;9417;16.484;102.872;2023-03-20T02:39:34;30.00;69.60
18575;DHT22;9417;16.484;102.872;2023-03-20T02:41:52;30.10;68.40
18575;DHT22;9417;16.484;102.872;2023-03-20T02:44:05;30.20;65.90
18575;DHT22;9417;16.484;102.872;2023-03-20T02:46:22;30.30;66.10
18575;DHT22;9417;16.484;102.872;2023-03-20T02:48:40;30.50;65.70
18575;DHT22;9417;16.484;102.872;2023-03-20T02:50:59;30.60;65.50
18575;DHT22;9417;16.484;102.872;2023-03-20T02:53:15;30.60;66.60
18575;DHT22;9417;16.484;102.872;2023-03-20T02:55:30;30.70;66.40
18575;DHT22;9417;16.484;102.872;2023-03-20T02:57:49;30.80;66.00
18575;DHT22;9417;16.484;102.872;2023-03-20T03:00:05;30.90;65.30
18575;DHT22;9417;16.484;102.872;2023-03-20T03:02:19;31.00;64.90
18575;DHT22;9417;16.484;102.872;2023-03-20T03:04:30;31.10;65.30
18575;DHT22;9417;16.484;102.872;2023-03-20T03:06:41;31.20;64.50
18575;DHT22;9417;16.484;102.872;2023-03-20T03:08:53;31.20;64.10
18575;DHT22;9417;16.484;102.872;2023-03-20T03:11:05;31.30;63.70
18575;DHT22;9417;16.484;102.872;2023-03-20T03:13:14;31.30;63.60
18575;DHT22;9417;16.484;102.872;2023-03-20T03:15:26;31.40;63.60
18575;DHT22;9417;16.484;102.872;2023-03-20T03:17:35;31.60;63.20
18575;DHT22;9417;16.484;102.872;2023-03-20T03:19:46;31.70;63.00
18575;DHT22;9417;16.484;102.872;2023-03-20T03:21:55;31.70;61.30
18575;DHT22;9417;16.484;102.872;2023-03-20T03:24:02;31.80;61.90
18575;DHT22;9417;16.484;102.872;2023-03-20T03:26:14;31.90;61.80
18575;DHT22;9417;16.484;102.872;2023-03-20T03:28:30;32.00;63.00
18575;DHT22;9417;16.484;102.872;2023-03-20T03:30:41;32.00;62.70
18575;DHT22;9417;16.484;102.872;2023-03-20T03:32:53;32.00;61.30
18575;DHT22;9417;16.484;102.872;2023-03-20T03:35:04;32.10;62.10
18575;DHT22;9417;16.484;102.872;2023-03-20T03:37:18;32.20;61.60
18575;DHT22;9417;16.484;102.872;2023-03-20T03:39:34;32.20;62.30
18575;DHT22;9417;16.484;102.872;2023-03-20T03:41:48;32.30;60.90
18575;DHT22;9417;16.484;102.872;2023-03-20T03:44:05;32.40;60.40
18575;DHT22;9417;16.484;102.872;2023-03-20T03:46:18;32.50;61.40
18575;DHT22;9417;16.484;102.872;2023-03-20T03:48:31;32.50;59.60
18575;DHT22;9417;16.484;102.872;2023-03-20T03:50:43;32.70;59.00
18575;DHT22;9417;16.484;102.872;2023-03-20T03:52:54;32.80;57.30
18575;DHT22;9417;16.484;102.872;2023-03-20T03:55:05;33.00;57.80
18575;DHT22;9417;16.484;102.872;2023-03-20T03:57:35;33.00;57.60
18575;DHT22;9417;16.484;102.872;2023-03-20T03:59:49;33.20;56.90
18575;DHT22;9417;16.484;102.872;2023-03-20T04:01:58;33.30;55.90
18575;DHT22;9417;16.484;102.872;2023-03-20T04:04:08;33.30;55.90
18575;DHT22;9417;16.484;102.872;2023-03-20T04:06:17;33.40;55.20
18575;DHT22;9417;16.484;102.872;2023-03-20T04:08:26;33.50;54.90
18575;DHT22;9417;16.484;102.872;2023-03-20T04:10:35;33.50;55.80
18575;DHT22;9417;16.484;102.872;2023-03-20T04:12:45;33.60;55.50
18575;DHT22;9417;16.484;102.872;2023-03-20T04:14:52;33.60;53.60
18575;DHT22;9417;16.484;102.872;2023-03-20T04:17:01;33.80;54.00
18575;DHT22;9417;16.484;102.872;2023-03-20T04:19:08;33.80;53.60
18575;DHT22;9417;16.484;102.872;2023-03-20T04:21:16;33.90;53.70
18575;DHT22;9417;16.484;102.872;2023-03-20T04:23:23;34.00;53.30
18575;DHT22;9417;16.484;102.872;2023-03-20T04:25:31;34.10;52.90
18575;DHT22;9417;16.484;102.872;2023-03-20T04:27:38;34.20;53.50
18575;DHT22;9417;16.484;102.872;2023-03-20T04:29:55;34.20;54.10
18575;DHT22;9417;16.484;102.872;2023-03-20T04:32:23;34.20;53.50
18575;DHT22;9417;16.484;102.872;2023-03-20T04:34:44;34.10;53.10
18575;DHT22;9417;16.484;102.872;2023-03-20T04:37:13;34.00;54.20
18575;DHT22;9417;16.484;102.872;2023-03-20T04:39:31;34.10;54.00
18575;DHT22;9417;16.484;102.872;2023-03-20T04:41:38;34.10;54.30
18575;DHT22;9417;16.484;102.872;2023-03-20T04:43:45;34.30;54.40
18575;DHT22;9417;16.484;102.872;2023-03-20T04:45:53;34.30;54.00
18575;DHT22;9417;16.484;102.872;2023-03-20T04:48:00;34.30;52.80
18575;DHT22;9417;16.484;102.872;2023-03-20T04:50:08;34.20;52.60
18575;DHT22;9417;16.484;102.872;2023-03-20T04:52:15;34.30;53.70
18575;DHT22;9417;16.484;102.872;2023-03-20T04:54:22;34.20;52.90
18575;DHT22;9417;16.484;102.872;2023-03-20T04:56:29;34.20;53.50
18575;DHT22;9417;16.484;102.872;2023-03-20T04:58:51;34.10;53.20
18575;DHT22;9417;16.484;102.872;2023-03-20T05:01:01;34.10;53.50
18575;DHT22;9417;16.484;102.872;2023-03-20T05:03:08;34.20;53.30
18575;DHT22;9417;16.484;102.872;2023-03-20T05:05:15;34.10;53.80
18575;DHT22;9417;16.484;102.872;2023-03-20T05:07:23;34.00;53.80
18575;DHT22;9417;16.484;102.872;2023-03-20T05:09:35;34.00;53.00
18575;DHT22;9417;16.484;102.872;2023-03-20T05:11:44;34.20;52.10
18575;DHT22;9417;16.484;102.872;2023-03-20T05:14:13;34.40;51.60
18575;DHT22;9417;16.484;102.872;2023-03-20T05:16:45;34.50;51.20
18575;DHT22;9417;16.484;102.872;2023-03-20T05:19:15;34.70;51.10
18575;DHT22;9417;16.484;102.872;2023-03-20T05:21:45;34.80;51.80
18575;DHT22;9417;16.484;102.872;2023-03-20T05:23:53;34.90;50.80
18575;DHT22;9417;16.484;102.872;2023-03-20T05:26:32;35.00;50.20
18575;DHT22;9417;16.484;102.872;2023-03-20T05:29:06;34.90;49.80
18575;DHT22;9417;16.484;102.872;2023-03-20T05:31:33;34.80;50.20
18575;DHT22;9417;16.484;102.872;2023-03-20T05:34:02;34.70;50.10
18575;DHT22;9417;16.484;102.872;2023-03-20T05:36:27;34.70;49.70
18575;DHT22;9417;16.484;102.872;2023-03-20T05:38:53;34.80;49.90
18575;DHT22;9417;16.484;102.872;2023-03-20T05:41:21;34.90;49.50
18575;DHT22;9417;16.484;102.872;2023-03-20T05:43:41;34.90;49.10
18575;DHT22;9417;16.484;102.872;2023-03-20T05:46:00;34.80;49.50
18575;DHT22;9417;16.484;102.872;2023-03-20T05:48:27;34.70;49.60
18575;DHT22;9417;16.484;102.872;2023-03-20T05:51:14;34.60;49.90
18575;DHT22;9417;16.484;102.872;2023-03-20T05:53:44;34.80;49.70
18575;DHT22;9417;16.484;102.872;2023-03-20T05:56:00;35.00;49.40
18575;DHT22;9417;16.484;102.872;2023-03-20T05:58:16;35.30;49.00
18575;DHT22;9417;16.484;102.872;2023-03-20T06:01:01;35.40;48.60
18575;DHT22;9417;16.484;102.872;2023-03-20T06:03:27;35.50;48.00
18575;DHT22;9417;16.484;102.872;2023-03-20T06:05:44;35.60;47.80
18575;DHT22;9417;16.484;102.872;2023-03-20T06:07:53;35.70;48.00
18575;DHT22;9417;16.484;102.872;2023-03-20T06:10:00;35.80;48.30
18575;DHT22;9417;16.484;102.872;2023-03-20T06:12:08;35.90;47.60
18575;DHT22;9417;16.484;102.872;2023-03-20T06:14:15;36.00;47.00
18575;DHT22;9417;16.484;102.872;2023-03-20T06:16:30;36.00;46.60
18575;DHT22;9417;16.484;102.872;2023-03-20T06:18:37;36.10;46.70
18575;DHT22;9417;16.484;102.872;2023-03-20T06:20:45;36.00;46.50
18575;DHT22;9417;16.484;102.872;2023-03-20T06:22:53;35.90;46.60
18575;DHT22;9417;16.484;102.872;2023-03-20T06:25:01;35.90;46.40
18575;DHT22;9417;16.484;102.872;2023-03-20T06:27:13;35.90;46.40
18575;DHT22;9417;16.484;102.872;2023-03-20T06:29:23;36.00;46.70
18575;DHT22;9417;16.484;102.872;2023-03-20T06:31:39;36.00;46.60
18575;DHT22;9417;16.484;102.872;2023-03-20T06:33:56;35.90;46.50
18575;DHT22;9417;16.484;102.872;2023-03-20T06:36:04;35.80;46.60
18575;DHT22;9417;16.484;102.872;2023-03-20T06:38:14;35.80;46.50
18575;DHT22;9417;16.484;102.872;2023-03-20T06:40:21;35.90;46.20
18575;DHT22;9417;16.484;102.872;2023-03-20T06:42:29;35.80;46.30
18575;DHT22;9417;16.484;102.872;2023-03-20T06:44:37;35.70;46.30
18575;DHT22;9417;16.484;102.872;2023-03-20T06:46:58;35.50;46.40
18575;DHT22;9417;16.484;102.872;2023-03-20T06:49:06;35.50;45.50
18575;DHT22;9417;16.484;102.872;2023-03-20T06:51:13;35.40;46.80
18575;DHT22;9417;16.484;102.872;2023-03-20T06:53:28;35.30;46.90
18575;DHT22;9417;16.484;102.872;2023-03-20T06:55:50;35.20;47.00
18575;DHT22;9417;16.484;102.872;2023-03-20T06:57:58;35.00;47.60
18575;DHT22;9417;16.484;102.872;2023-03-20T07:00:07;35.00;47.60
18575;DHT22;9417;16.484;102.872;2023-03-20T07:02:15;35.00;48.20
18575;DHT22;9417;16.484;102.872;2023-03-20T07:04:23;34.90;49.80
18575;DHT22;9417;16.484;102.872;2023-03-20T07:06:33;34.80;51.00
18575;DHT22;9417;16.484;102.872;2023-03-20T07:08:43;34.70;50.80
18575;DHT22;9417;16.484;102.872;2023-03-20T07:10:51;34.50;51.30
18575;DHT22;9417;16.484;102.872;2023-03-20T07:12:59;34.50;51.30
18575;DHT22;9417;16.484;102.872;2023-03-20T07:15:07;34.70;51.00
18575;DHT22;9417;16.484;102.872;2023-03-20T07:17:15;34.80;51.30
18575;DHT22;9417;16.484;102.872;2023-03-20T07:19:22;34.80;51.70
18575;DHT22;9417;16.484;102.872;2023-03-20T07:21:32;34.90;50.50
18575;DHT22;9417;16.484;102.872;2023-03-20T07:23:40;35.00;50.20
18575;DHT22;9417;16.484;102.872;2023-03-20T07:25:48;35.10;51.20
18575;DHT22;9417;16.484;102.872;2023-03-20T07:27:56;35.10;50.60
18575;DHT22;9417;16.484;102.872;2023-03-20T07:30:05;35.20;50.50
18575;DHT22;9417;16.484;102.872;2023-03-20T07:32:13;35.20;49.60
18575;DHT22;9417;16.484;102.872;2023-03-20T07:34:25;35.20;49.20
18575;DHT22;9417;16.484;102.872;2023-03-20T07:36:34;35.20;49.60
18575;DHT22;9417;16.484;102.872;2023-03-20T07:38:41;35.20;50.10
18575;DHT22;9417;16.484;102.872;2023-03-20T07:40:53;35.20;50.00
18575;DHT22;9417;16.484;102.872;2023-03-20T07:43:00;35.30;49.90
18575;DHT22;9417;16.484;102.872;2023-03-20T07:45:36;35.30;48.60
18575;DHT22;9417;16.484;102.872;2023-03-20T07:47:44;35.30;48.10
18575;DHT22;9417;16.484;102.872;2023-03-20T07:49:52;35.50;48.00
18575;DHT22;9417;16.484;102.872;2023-03-20T07:51:59;35.60;48.30
18575;DHT22;9417;16.484;102.872;2023-03-20T07:54:06;35.70;48.40
18575;DHT22;9417;16.484;102.872;2023-03-20T07:56:15;35.70;48.30
18575;DHT22;9417;16.484;102.872;2023-03-20T07:58:22;35.60;47.90
18575;DHT22;9417;16.484;102.872;2023-03-20T08:00:29;35.40;47.70
18575;DHT22;9417;16.484;102.872;2023-03-20T08:02:36;35.30;50.00
18575;DHT22;9417;16.484;102.872;2023-03-20T08:04:43;35.20;51.30
18575;DHT22;9417;16.484;102.872;2023-03-20T08:06:50;35.10;49.90
18575;DHT22;9417;16.484;102.872;2023-03-20T08:08:58;35.00;50.60
18575;DHT22;9417;16.484;102.872;2023-03-20T08:11:05;34.90;50.50
18575;DHT22;9417;16.484;102.872;2023-03-20T08:13:14;34.90;50.20
18575;DHT22;9417;16.484;102.872;2023-03-20T08:15:21;34.90;51.10
18575;DHT22;9417;16.484;102.872;2023-03-20T08:17:29;34.90;50.60
18575;DHT22;9417;16.484;102.872;2023-03-20T08:19:36;35.00;50.20
18575;DHT22;9417;16.484;102.872;2023-03-20T08:21:43;35.20;49.10
18575;DHT22;9417;16.484;102.872;2023-03-20T08:23:50;35.20;50.50
18575;DHT22;9417;16.484;102.872;2023-03-20T08:25:57;35.30;50.00
18575;DHT22;9417;16.484;102.872;2023-03-20T08:28:04;35.30;49.60
18575;DHT22;9417;16.484;102.872;2023-03-20T08:30:14;35.30;49.30
18575;DHT22;9417;16.484;102.872;2023-03-20T08:32:21;35.40;49.40
18575;DHT22;9417;16.484;102.872;2023-03-20T08:34:31;35.40;49.90
18575;DHT22;9417;16.484;102.872;2023-03-20T08:36:38;35.30;49.80
18575;DHT22;9417;16.484;102.872;2023-03-20T08:38:46;35.20;50.60
18575;DHT22;9417;16.484;102.872;2023-03-20T08:40:53;35.10;49.50
18575;DHT22;9417;16.484;102.872;2023-03-20T08:43:00;35.10;50.80
18575;DHT22;9417;16.484;102.872;2023-03-20T08:45:09;35.10;50.20
18575;DHT22;9417;16.484;102.872;2023-03-20T08:47:18;35.10;49.50
18575;DHT22;9417;16.484;102.872;2023-03-20T08:49:25;35.00;49.30
18575;DHT22;9417;16.484;102.872;2023-03-20T08:51:33;34.90;49.90
18575;DHT22;9417;16.484;102.872;2023-03-20T08:53:41;34.80;50.80
18575;DHT22;9417;16.484;102.872;2023-03-20T08:55:48;34.80;52.00
18575;DHT22;9417;16.484;102.872;2023-03-20T08:57:55;34.80;51.40
18575;DHT22;9417;16.484;102.872;2023-03-20T09:00:02;34.80;50.80
18575;DHT22;9417;16.484;102.872;2023-03-20T09:02:10;34.90;52.50
18575;DHT22;9417;16.484;102.872;2023-03-20T09:04:20;34.90;53.50
18575;DHT22;9417;16.484;102.872;2023-03-20T09:06:27;34.80;51.50
18575;DHT22;9417;16.484;102.872;2023-03-20T09:08:34;34.70;51.30
18575;DHT22;9417;16.484;102.872;2023-03-20T09:10:41;34.60;51.30
18575;DHT22;9417;16.484;102.872;2023-03-20T09:12:48;34.50;52.20
18575;DHT22;9417;16.484;102.872;2023-03-20T09:14:55;34.40;52.30
18575;DHT22;9417;16.484;102.872;2023-03-20T09:17:02;34.40;52.40
18575;DHT22;9417;16.484;102.872;2023-03-20T09:19:09;34.40;52.20
18575;DHT22;9417;16.484;102.872;2023-03-20T09:21:18;34.40;52.50
18575;DHT22;9417;16.484;102.872;2023-03-20T09:23:25;34.50;52.30
18575;DHT22;9417;16.484;102.872;2023-03-20T09:25:32;34.50;52.10
18575;DHT22;9417;16.484;102.872;2023-03-20T09:27:40;34.50;51.80
18575;DHT22;9417;16.484;102.872;2023-03-20T09:29:47;34.50;50.20
18575;DHT22;9417;16.484;102.872;2023-03-20T09:31:53;34.50;49.90
18575;DHT22;9417;16.484;102.872;2023-03-20T09:34:00;34.60;49.80
18575;DHT22;9417;16.484;102.872;2023-03-20T09:36:09;34.60;50.50
18575;DHT22;9417;16.484;102.872;2023-03-20T09:38:18;34.60;51.00
18575;DHT22;9417;16.484;102.872;2023-03-20T09:40:27;34.50;51.40
18575;DHT22;9417;16.484;102.872;2023-03-20T09:42:42;34.50;51.10
18575;DHT22;9417;16.484;102.872;2023-03-20T09:45:02;34.40;50.80
18575;DHT22;9417;16.484;102.872;2023-03-20T09:47:17;34.40;51.20
18575;DHT22;9417;16.484;102.872;2023-03-20T09:49:38;34.40;51.20
18575;DHT22;9417;16.484;102.872;2023-03-20T09:51:49;34.30;51.30
18575;DHT22;9417;16.484;102.872;2023-03-20T09:54:01;34.30;52.10
18575;DHT22;9417;16.484;102.872;2023-03-20T09:56:14;34.30;53.40
18575;DHT22;9417;16.484;102.872;2023-03-20T09:58:25;34.20;55.40
18575;DHT22;9417;16.484;102.872;2023-03-20T10:00:34;34.20;54.50
18575;DHT22;9417;16.484;102.872;2023-03-20T10:02:47;34.20;53.80
18575;DHT22;9417;16.484;102.872;2023-03-20T10:04:56;34.10;54.50
18575;DHT22;9417;16.484;102.872;2023-03-20T10:07:04;34.20;53.90
18575;DHT22;9417;16.484;102.872;2023-03-20T10:09:21;34.10;53.30
18575;DHT22;9417;16.484;102.872;2023-03-20T10:11:44;34.10;52.90
18575;DHT22;9417;16.484;102.872;2023-03-20T10:14:10;34.00;52.10
18575;DHT22;9417;16.484;102.872;2023-03-20T10:16:32;34.00;52.10
18575;DHT22;9417;16.484;102.872;2023-03-20T10:18:48;34.00;52.00
18575;DHT22;9417;16.484;102.872;2023-03-20T10:21:00;34.00;52.70
18575;DHT22;9417;16.484;102.872;2023-03-20T10:23:15;34.00;53.20
18575;DHT22;9417;16.484;102.872;2023-03-20T10:25:29;34.00;53.70
18575;DHT22;9417;16.484;102.872;2023-03-20T10:27:39;33.90;54.30
18575;DHT22;9417;16.484;102.872;2023-03-20T10:29:54;33.90;54.80
18575;DHT22;9417;16.484;102.872;2023-03-20T10:32:09;33.90;55.60
18575;DHT22;9417;16.484;102.872;2023-03-20T10:34:40;33.80;55.50
18575;DHT22;9417;16.484;102.872;2023-03-20T10:36:59;33.90;52.10
18575;DHT22;9417;16.484;102.872;2023-03-20T10:39:15;33.80;52.60
18575;DHT22;9417;16.484;102.872;2023-03-20T10:41:28;33.80;53.20
18575;DHT22;9417;16.484;102.872;2023-03-20T10:43:37;33.80;52.50
18575;DHT22;9417;16.484;102.872;2023-03-20T10:45:48;33.80;51.90
18575;DHT22;9417;16.484;102.872;2023-03-20T10:47:58;33.80;51.80
18575;DHT22;9417;16.484;102.872;2023-03-20T10:50:10;33.70;53.50
18575;DHT22;9417;16.484;102.872;2023-03-20T10:52:25;33.70;55.00
18575;DHT22;9417;16.484;102.872;2023-03-20T10:54:35;33.60;55.30
18575;DHT22;9417;16.484;102.872;2023-03-20T10:56:47;33.50;56.10
18575;DHT22;9417;16.484;102.872;2023-03-20T10:59:00;33.40;57.20
18575;DHT22;9417;16.484;102.872;2023-03-20T11:01:09;33.30;56.90
18575;DHT22;9417;16.484;102.872;2023-03-20T11:03:21;33.20;56.80
18575;DHT22;9417;16.484;102.872;2023-03-20T11:05:31;33.20;57.10
18575;DHT22;9417;16.484;102.872;2023-03-20T11:07:39;33.10;56.70
18575;DHT22;9417;16.484;102.872;2023-03-20T11:09:47;33.00;56.30
18575;DHT22;9417;16.484;102.872;2023-03-20T11:12:18;33.00;56.10
18575;DHT22;9417;16.484;102.872;2023-03-20T11:14:31;33.00;55.70
18575;DHT22;9417;16.484;102.872;2023-03-20T11:16:38;33.00;55.70
18575;DHT22;9417;16.484;102.872;2023-03-20T11:18:46;32.90;56.00
18575;DHT22;9417;16.484;102.872;2023-03-20T11:20:56;32.90;56.30
18575;DHT22;9417;16.484;102.872;2023-03-20T11:23:04;32.80;57.10
18575;DHT22;9417;16.484;102.872;2023-03-20T11:25:27;32.70;57.70
18575;DHT22;9417;16.484;102.872;2023-03-20T11:27:37;32.60;58.50
18575;DHT22;9417;16.484;102.872;2023-03-20T11:29:47;32.50;58.40
18575;DHT22;9417;16.484;102.872;2023-03-20T11:32:04;32.40;59.60
18575;DHT22;9417;16.484;102.872;2023-03-20T11:34:22;32.30;59.10
18575;DHT22;9417;16.484;102.872;2023-03-20T11:36:31;32.10;58.20
18575;DHT22;9417;16.484;102.872;2023-03-20T11:38:45;32.00;58.60
18575;DHT22;9417;16.484;102.872;2023-03-20T11:40:52;31.90;59.20
18575;DHT22;9417;16.484;102.872;2023-03-20T11:43:08;31.80;59.00
18575;DHT22;9417;16.484;102.872;2023-03-20T11:45:17;31.80;59.20
18575;DHT22;9417;16.484;102.872;2023-03-20T11:47:26;31.80;60.80
18575;DHT22;9417;16.484;102.872;2023-03-20T11:49:44;31.70;61.20
18575;DHT22;9417;16.484;102.872;2023-03-20T11:51:59;31.60;61.20
18575;DHT22;9417;16.484;102.872;2023-03-20T11:54:13;31.60;61.90
18575;DHT22;9417;16.484;102.872;2023-03-20T11:56:23;31.50;62.20
18575;DHT22;9417;16.484;102.872;2023-03-20T11:58:32;31.50;62.30
18575;DHT22;9417;16.484;102.872;2023-03-20T12:00:41;31.50;63.00
18575;DHT22;9417;16.484;102.872;2023-03-20T12:02:49;31.40;63.30
18575;DHT22;9417;16.484;102.872;2023-03-20T12:04:59;31.40;64.10
18575;DHT22;9417;16.484;102.872;2023-03-20T12:07:12;31.30;64.30
18575;DHT22;9417;16.484;102.872;2023-03-20T12:09:34;31.20;64.70
18575;DHT22;9417;16.484;102.872;2023-03-20T12:11:42;31.10;65.70
18575;DHT22;9417;16.484;102.872;2023-03-20T12:13:55;31.10;66.90
18575;DHT22;9417;16.484;102.872;2023-03-20T12:16:05;31.00;65.70
18575;DHT22;9417;16.484;102.872;2023-03-20T12:18:16;31.00;66.00
18575;DHT22;9417;16.484;102.872;2023-03-20T12:20:31;30.90;66.60
18575;DHT22;9417;16.484;102.872;2023-03-20T12:22:48;30.80;66.80
18575;DHT22;9417;16.484;102.872;2023-03-20T12:25:02;30.80;67.60
18575;DHT22;9417;16.484;102.872;2023-03-20T12:27:22;30.80;67.80
18575;DHT22;9417;16.484;102.872;2023-03-20T12:29:39;30.70;68.90
18575;DHT22;9417;16.484;102.872;2023-03-20T12:31:52;30.70;69.30
18575;DHT22;9417;16.484;102.872;2023-03-20T12:34:04;30.60;68.90
18575;DHT22;9417;16.484;102.872;2023-03-20T12:36:15;30.60;68.90
18575;DHT22;9417;16.484;102.872;2023-03-20T12:38:27;30.60;69.20
18575;DHT22;9417;16.484;102.872;2023-03-20T12:40:40;30.60;69.50
18575;DHT22;9417;16.484;102.872;2023-03-20T12:42:55;30.50;69.20
18575;DHT22;9417;16.484;102.872;2023-03-20T12:45:11;30.50;69.20
18575;DHT22;9417;16.484;102.872;2023-03-20T12:47:42;30.50;69.20
18575;DHT22;9417;16.484;102.872;2023-03-20T12:49:56;30.50;69.80
18575;DHT22;9417;16.484;102.872;2023-03-20T12:52:10;30.50;69.70
18575;DHT22;9417;16.484;102.872;2023-03-20T12:54:35;30.50;69.90
18575;DHT22;9417;16.484;102.872;2023-03-20T12:57:03;30.50;69.90
18575;DHT22;9417;16.484;102.872;2023-03-20T12:59:19;30.40;69.70
18575;DHT22;9417;16.484;102.872;2023-03-20T13:01:33;30.40;69.30
18575;DHT22;9417;16.484;102.872;2023-03-20T13:03:52;30.40;68.90
18575;DHT22;9417;16.484;102.872;2023-03-20T13:06:06;30.40;68.70
18575;DHT22;9417;16.484;102.872;2023-03-20T13:08:48;30.40;68.90
18575;DHT22;9417;16.484;102.872;2023-03-20T13:11:00;30.40;69.80
18575;DHT22;9417;16.484;102.872;2023-03-20T13:13:17;30.40;69.50
18575;DHT22;9417;16.484;102.872;2023-03-20T13:15:34;30.40;68.80
18575;DHT22;9417;16.484;102.872;2023-03-20T13:17:51;30.40;68.90
18575;DHT22;9417;16.484;102.872;2023-03-20T13:20:18;30.30;69.00
18575;DHT22;9417;16.484;102.872;2023-03-20T13:22:34;30.30;69.20
18575;DHT22;9417;16.484;102.872;2023-03-20T13:24:46;30.30;69.10
18575;DHT22;9417;16.484;102.872;2023-03-20T13:27:00;30.20;69.20
18575;DHT22;9417;16.484;102.872;2023-03-20T13:29:15;30.20;69.70
18575;DHT22;9417;16.484;102.872;2023-03-20T13:31:35;30.10;70.00
18575;DHT22;9417;16.484;102.872;2023-03-20T13:33:51;30.00;69.90
18575;DHT22;9417;16.484;102.872;2023-03-20T13:36:01;29.90;70.40
18575;DHT22;9417;16.484;102.872;2023-03-20T13:38:16;29.80;70.60
18575;DHT22;9417;16.484;102.872;2023-03-20T13:40:27;29.70;70.70
18575;DHT22;9417;16.484;102.872;2023-03-20T13:42:37;29.70;71.20
18575;DHT22;9417;16.484;102.872;2023-03-20T13:44:45;29.70;71.30
18575;DHT22;9417;16.484;102.872;2023-03-20T13:46:55;29.60;71.60
18575;DHT22;9417;16.484;102.872;2023-03-20T13:49:06;29.60;71.70
18575;DHT22;9417;16.484;102.872;2023-03-20T13:51:22;29.60;71.90
18575;DHT22;9417;16.484;102.872;2023-03-20T13:53:37;29.60;72.70